createdAt,value
2022-11-29T00:01:57.121Z,83.71
2022-11-29T00:04:26.008Z,84.01
2022-11-29T00:06:55.466Z,83.86
2022-11-29T00:09:22.276Z,83.61
2022-11-29T00:12:07.664Z,84.06
2022-11-29T00:14:34.566Z,84.69
2022-11-29T00:17:02.593Z,83.73
2022-11-29T00:19:36.446Z,83.91
2022-11-29T00:22:06.120Z,84.50
2022-11-29T00:24:36.265Z,83.86
2022-11-29T00:27:03.038Z,83.81
2022-11-29T00:29:37.062Z,83.38
2022-11-29T00:32:10.137Z,84.00
2022-11-29T00:34:40.168Z,83.89
2022-11-29T00:37:07.009Z,83.95
2022-11-29T00:39:33.789Z,83.52
2022-11-29T00:42:03.047Z,84.42
2022-11-29T00:44:37.141Z,83.82
2022-11-29T00:47:06.901Z,84.43
2022-11-29T00:49:37.698Z,83.38
2022-11-29T00:52:08.687Z,83.68
2022-11-29T00:54:40.141Z,83.89
2022-11-29T00:57:12.223Z,83.38
2022-11-29T00:59:39.762Z,84.27
2022-11-29T01:02:09.355Z,84.14
2022-11-29T01:04:39.265Z,83.94
2022-11-29T01:07:05.900Z,84.34
2022-11-29T01:09:37.392Z,84.28
2022-11-29T01:12:04.193Z,83.40
2022-11-29T01:14:35.138Z,83.37
2022-11-29T01:17:02.063Z,83.59
2022-11-29T01:19:57.862Z,84.13
2022-11-29T01:22:28.473Z,84.02
2022-11-29T01:24:55.380Z,83.56
2022-11-29T01:27:26.639Z,83.87
2022-11-29T01:29:55.337Z,84.02
2022-11-29T01:32:24.577Z,84.22
2022-11-29T01:34:53.609Z,84.53
2022-11-29T01:37:20.432Z,84.70
2022-11-29T01:39:53.861Z,83.72
2022-11-29T01:42:25.575Z,83.72
2022-11-29T01:45:28.337Z,85.10
2022-11-29T01:47:57.919Z,84.09
2022-11-29T01:50:28.694Z,84.74
2022-11-29T01:52:55.507Z,83.78
2022-11-29T01:55:22.273Z,84.24
2022-11-29T01:57:57.211Z,84.56
2022-11-29T02:00:28.943Z,83.53
2022-11-29T02:03:20.509Z,84.37
2022-11-29T02:05:52.036Z,85.20
2022-11-29T02:08:30.307Z,83.92
2022-11-29T02:11:23.079Z,84.58
2022-11-29T02:14:15.404Z,85.08
2022-11-29T02:17:00.598Z,83.93
2022-11-29T02:20:10.033Z,85.13
2022-11-29T02:22:43.774Z,84.18
2022-11-29T02:25:50.212Z,83.99
2022-11-29T02:28:43.624Z,85.02
2022-11-29T02:32:05.097Z,85.26
2022-11-29T02:34:53.822Z,85.05
2022-11-29T02:37:46.400Z,84.56
2022-11-29T02:40:47.254Z,84.40
2022-11-29T02:43:32.842Z,84.17
2022-11-29T02:46:40.532Z,84.58
2022-11-29T02:49:31.938Z,84.69
2022-11-29T02:52:14.329Z,84.54
2022-11-29T02:55:15.432Z,85.57
2022-11-29T02:57:58.751Z,85.60
2022-11-29T03:00:36.359Z,84.64
2022-11-29T03:03:48.858Z,85.38
2022-11-29T03:06:29.547Z,84.81
2022-11-29T03:09:16.896Z,85.65
2022-11-29T03:12:05.216Z,84.22
2022-11-29T03:15:02.614Z,84.94
2022-11-29T03:17:50.132Z,84.70
2022-11-29T03:20:22.910Z,84.96
2022-11-29T03:22:58.026Z,86.04
2022-11-29T03:26:16.646Z,85.12
2022-11-29T03:28:53.143Z,85.22
2022-11-29T03:31:37.431Z,85.22
2022-11-29T03:34:27.894Z,85.68
2022-11-29T03:37:20.393Z,86.19
2022-11-29T03:40:18.251Z,85.80
2022-11-29T03:42:55.898Z,85.56
2022-11-29T03:46:07.485Z,84.91
2022-11-29T03:48:42.525Z,85.76
2022-11-29T03:51:26.498Z,85.11
2022-11-29T03:54:16.717Z,85.05
2022-11-29T03:56:44.205Z,84.85
2022-11-29T04:00:01.640Z,86.12
2022-11-29T04:02:44.370Z,86.07
2022-11-29T04:05:26.043Z,85.49
2022-11-29T04:08:20.848Z,86.45
2022-11-29T04:10:56.576Z,85.77
2022-11-29T04:13:41.957Z,87.13
2022-11-29T04:16:39.089Z,86.74
2022-11-29T04:19:36.740Z,87.56
2022-11-29T04:22:40.841Z,85.96
2022-11-29T04:25:34.871Z,85.84
2022-11-29T04:28:10.785Z,87.08
2022-11-29T04:31:23.416Z,86.87
2022-11-29T04:34:20.465Z,85.85
2022-11-29T04:36:59.325Z,85.72
2022-11-29T04:39:50.441Z,86.92
2022-11-29T04:42:43.036Z,86.89
2022-11-29T04:45:38.289Z,86.43
2022-11-29T04:51:45.027Z,86.95
2022-11-29T04:54:30.547Z,86.61
2022-11-29T04:57:08.632Z,86.65
2022-11-29T04:59:53.484Z,87.10
2022-11-29T05:02:42.891Z,86.24
2022-11-29T05:05:12.597Z,87.34
2022-11-29T05:07:50.717Z,86.28
2022-11-29T05:10:33.075Z,86.38
2022-11-29T05:13:21.560Z,87.39
2022-11-29T05:16:12.984Z,86.21
2022-11-29T05:18:58.190Z,87.05
2022-11-29T05:21:49.258Z,87.54
2022-11-29T05:24:54.308Z,87.55
2022-11-29T05:27:27.062Z,86.85
2022-11-29T05:30:11.573Z,86.46
2022-11-29T05:32:56.427Z,87.48
2022-11-29T05:35:58.108Z,87.31
2022-11-29T05:39:02.581Z,87.16
2022-11-29T05:42:07.621Z,86.15
2022-11-29T05:44:50.044Z,86.19
2022-11-29T05:47:31.192Z,86.27
2022-11-29T05:50:09.573Z,86.58
2022-11-29T05:52:48.111Z,85.91
2022-11-29T05:55:14.944Z,86.59
2022-11-29T05:57:55.818Z,86.10
2022-11-29T06:00:23.763Z,86.17
2022-11-29T06:03:46.832Z,87.00
2022-11-29T06:06:42.147Z,85.96
2022-11-29T06:09:28.231Z,85.94
2022-11-29T06:12:06.999Z,87.07
2022-11-29T06:15:00.102Z,86.72
2022-11-29T06:17:47.447Z,86.40
2022-11-29T06:20:41.081Z,86.15
2022-11-29T06:23:33.568Z,85.72
2022-11-29T06:26:29.347Z,86.71
2022-11-29T06:29:34.796Z,87.12
2022-11-29T06:32:18.425Z,86.18
2022-11-29T06:34:54.627Z,86.42
2022-11-29T06:37:33.809Z,86.74
2022-11-29T06:40:00.775Z,87.01
2022-11-29T06:42:27.401Z,86.75
2022-11-29T06:44:54.536Z,86.70
2022-11-29T06:47:44.036Z,87.07
2022-11-29T06:50:25.131Z,86.74
2022-11-29T06:53:10.111Z,86.29
2022-11-29T06:55:48.217Z,86.98
2022-11-29T06:58:40.153Z,86.56
2022-11-29T07:01:28.906Z,85.76
2022-11-29T07:04:16.830Z,86.27
2022-11-29T07:06:43.832Z,86.17
2022-11-29T07:09:17.478Z,86.73
2022-11-29T07:11:45.760Z,86.77
2022-11-29T07:14:13.062Z,86.27
2022-11-29T07:16:58.908Z,85.44
2022-11-29T07:19:36.925Z,85.71
2022-11-29T07:22:22.543Z,85.93
2022-11-29T07:25:14.335Z,86.36
2022-11-29T07:27:56.396Z,85.41
2022-11-29T07:30:33.949Z,85.83
2022-11-29T07:33:09.682Z,86.17
2022-11-29T07:36:01.075Z,85.22
2022-11-29T07:38:50.452Z,85.79
2022-11-29T07:41:55.650Z,86.39
2022-11-29T07:44:38.595Z,85.93
2022-11-29T07:47:05.519Z,86.03
2022-11-29T07:49:32.231Z,85.68
2022-11-29T07:51:59.298Z,85.89
2022-11-29T07:54:26.412Z,85.29
2022-11-29T07:56:56.330Z,85.80
2022-11-29T07:59:22.958Z,86.30
2022-11-29T08:01:49.687Z,85.20
2022-11-29T08:04:16.417Z,86.16
2022-11-29T08:06:43.147Z,85.83
2022-11-29T08:09:09.911Z,85.58
2022-11-29T08:11:36.656Z,86.60
2022-11-29T08:14:05.321Z,86.26
2022-11-29T08:16:32.707Z,85.49
2022-11-29T08:18:59.359Z,85.67
2022-11-29T08:21:26.303Z,86.50
2022-11-29T08:23:56.134Z,86.39
2022-11-29T08:26:28.143Z,85.57
2022-11-29T08:28:57.858Z,86.09
2022-11-29T08:31:24.480Z,86.09
2022-11-29T08:33:51.066Z,85.40
2022-11-29T08:36:19.908Z,86.05
2022-11-29T08:38:47.499Z,85.67
2022-11-29T08:41:16.685Z,86.20
2022-11-29T08:43:44.121Z,85.95
2022-11-29T08:46:16.734Z,85.62
2022-11-29T08:48:46.926Z,86.01
2022-11-29T08:51:14.472Z,85.50
2022-11-29T08:53:43.157Z,86.69
2022-11-29T08:59:02.388Z,87.16
2022-11-29T09:01:29.521Z,86.01
2022-11-29T09:04:10.516Z,86.37
2022-11-29T09:06:41.132Z,85.35
2022-11-29T09:09:07.849Z,87.08
2022-11-29T09:11:35.819Z,85.65
2022-11-29T09:14:06.053Z,87.07
2022-11-29T09:16:36.030Z,86.47
2022-11-29T09:19:04.490Z,86.09
2022-11-29T09:21:32.695Z,85.53
2022-11-29T09:24:00.974Z,86.75
2022-11-29T09:26:30.852Z,86.11
2022-11-29T09:29:02.449Z,85.66
2022-11-29T09:31:30.631Z,87.08
2022-11-29T09:33:57.297Z,86.97
2022-11-29T09:36:28.503Z,86.01
2022-11-29T09:38:56.742Z,87.09
2022-11-29T09:41:48.574Z,85.76
2022-11-29T09:44:39.933Z,87.12
2022-11-29T09:47:39.757Z,87.15
2022-11-29T09:50:26.459Z,87.14
2022-11-29T09:53:17.519Z,86.83
2022-11-29T09:56:08.764Z,87.28
2022-11-29T09:58:45.075Z,87.17
2022-11-29T10:01:20.546Z,86.11
2022-11-29T10:03:52.851Z,86.02
2022-11-29T10:06:29.106Z,86.71
2022-11-29T10:09:13.614Z,87.34
2022-11-29T10:12:10.367Z,85.52
2022-11-29T10:14:45.225Z,86.91
2022-11-29T10:17:30.757Z,86.96
2022-11-29T10:20:05.332Z,85.70
2022-11-29T10:22:45.637Z,86.45
2022-11-29T10:25:22.858Z,86.71
2022-11-29T10:27:49.782Z,86.90
2022-11-29T10:30:17.549Z,87.11
2022-11-29T10:32:46.776Z,86.21
2022-11-29T10:35:15.924Z,85.92
2022-11-29T10:37:56.398Z,86.75
2022-11-29T10:40:34.907Z,86.29
2022-11-29T10:43:02.401Z,85.76
2022-11-29T10:45:37.667Z,86.77
2022-11-29T10:48:12.037Z,86.48
2022-11-29T10:50:45.670Z,86.22
2022-11-29T10:53:14.831Z,85.81
2022-11-29T10:56:06.552Z,86.77
2022-11-29T10:58:33.336Z,85.91
2022-11-29T11:01:08.633Z,86.75
2022-11-29T11:04:04.231Z,87.59
2022-11-29T11:06:48.648Z,87.27
2022-11-29T11:09:49.158Z,87.05
2022-11-29T11:12:15.958Z,86.02
2022-11-29T11:14:44.239Z,87.63
2022-11-29T11:17:32.925Z,87.17
2022-11-29T11:20:13.661Z,85.84
2022-11-29T11:22:41.162Z,86.88
2022-11-29T11:25:44.849Z,87.69
2022-11-29T11:28:23.831Z,86.01
2022-11-29T11:31:07.135Z,87.69
2022-11-29T11:33:43.685Z,85.94
2022-11-29T11:36:14.892Z,85.81
2022-11-29T11:38:55.064Z,86.66
2022-11-29T11:41:53.275Z,85.55
2022-11-29T11:44:51.241Z,86.03
2022-11-29T11:47:55.005Z,85.62
2022-11-29T11:50:31.392Z,86.52
2022-11-29T11:53:05.611Z,85.72
2022-11-29T11:55:37.451Z,85.73
2022-11-29T11:58:13.109Z,86.50
2022-11-29T12:03:50.142Z,86.57
2022-11-29T12:06:34.199Z,86.16
2022-11-29T12:09:18.613Z,85.63
2022-11-29T12:12:11.443Z,85.53
2022-11-29T12:14:54.463Z,85.74
2022-11-29T12:17:42.877Z,87.16
2022-11-29T12:20:34.645Z,87.41
2022-11-29T12:23:13.669Z,85.95
2022-11-29T12:25:43.348Z,87.42
2022-11-29T12:28:20.352Z,87.38
2022-11-29T12:30:52.821Z,87.13
2022-11-29T12:33:31.482Z,85.45
2022-11-29T12:36:09.524Z,86.48
2022-11-29T12:38:39.008Z,86.10
2022-11-29T12:41:31.996Z,86.10
2022-11-29T12:44:07.599Z,86.43
2022-11-29T12:46:34.805Z,85.07
2022-11-29T12:49:18.587Z,86.64
2022-11-29T12:51:57.508Z,86.57
2022-11-29T12:54:26.740Z,86.51
2022-11-29T12:57:11.829Z,86.27
2022-11-29T13:00:00.645Z,86.37
2022-11-29T13:03:04.473Z,86.32
2022-11-29T13:05:52.329Z,85.45
2022-11-29T13:08:40.049Z,86.94
2022-11-29T13:11:29.511Z,86.81
2022-11-29T13:14:41.120Z,86.63
2022-11-29T13:17:00.109Z,86.03
2022-11-29T13:19:46.629Z,85.78
2022-11-29T13:22:35.893Z,85.53
2022-11-29T13:25:18.118Z,85.45
2022-11-29T13:27:56.871Z,87.01
2022-11-29T13:30:23.412Z,85.99
2022-11-29T13:33:05.670Z,85.85
2022-11-29T13:35:41.651Z,86.18
2022-11-29T13:38:33.902Z,86.78
2022-11-29T13:41:19.594Z,86.45
2022-11-29T13:43:55.473Z,86.26
2022-11-29T13:46:40.531Z,86.18
2022-11-29T13:49:20.625Z,85.70
2022-11-29T13:51:47.563Z,86.22
2022-11-29T13:54:29.097Z,86.84
2022-11-29T13:57:21.644Z,85.78
2022-11-29T13:59:50.277Z,86.58
2022-11-29T14:02:31.351Z,86.62
2022-11-29T14:04:58.573Z,85.63
2022-11-29T14:07:25.185Z,86.73
2022-11-29T14:10:07.356Z,86.29
2022-11-29T14:12:49.206Z,86.58
2022-11-29T14:15:31.792Z,86.05
2022-11-29T14:18:02.527Z,85.83
2022-11-29T14:20:29.046Z,85.60
2022-11-29T14:23:04.748Z,85.28
2022-11-29T14:25:51.539Z,85.66
2022-11-29T14:28:21.835Z,85.79
2022-11-29T14:30:53.602Z,85.70
2022-11-29T14:33:52.492Z,85.12
2022-11-29T14:36:58.997Z,86.82
2022-11-29T14:39:44.521Z,86.00
2022-11-29T14:42:20.480Z,86.74
2022-11-29T14:44:51.777Z,86.56
2022-11-29T14:47:30.027Z,86.14
2022-11-29T14:49:58.921Z,86.44
2022-11-29T14:52:31.634Z,86.39
2022-11-29T14:54:58.480Z,85.89
2022-11-29T14:57:47.394Z,86.20
2022-11-29T15:00:16.698Z,85.95
2022-11-29T15:02:50.768Z,86.21
2022-11-29T15:05:21.860Z,85.45
2022-11-29T15:08:09.477Z,85.39
2022-11-29T15:10:50.972Z,85.46
2022-11-29T15:13:29.385Z,85.33
2022-11-29T15:16:14.385Z,86.14
2022-11-29T15:18:59.908Z,86.16
2022-11-29T15:21:50.967Z,85.90
2022-11-29T15:24:18.044Z,86.46
2022-11-29T15:27:03.965Z,85.23
2022-11-29T15:29:31.485Z,85.68
2022-11-29T15:32:03.558Z,85.39
2022-11-29T15:34:45.482Z,85.15
2022-11-29T15:37:46.201Z,86.13
2022-11-29T15:40:14.454Z,85.64
2022-11-29T15:42:43.865Z,84.70
2022-11-29T15:45:32.582Z,85.50
2022-11-29T15:48:13.342Z,85.08
2022-11-29T15:50:46.916Z,85.16
2022-11-29T15:53:20.298Z,86.47
2022-11-29T15:55:50.548Z,84.83
2022-11-29T15:58:17.784Z,85.30
2022-11-29T16:00:49.605Z,84.74
2022-11-29T16:03:25.179Z,85.59
2022-11-29T16:06:00.350Z,84.74
2022-11-29T16:08:32.511Z,84.98
2022-11-29T16:11:00.447Z,84.36
2022-11-29T16:13:39.151Z,85.29
2022-11-29T16:16:07.663Z,84.88
2022-11-29T16:18:34.872Z,84.93
2022-11-29T16:21:04.906Z,84.90
2022-11-29T16:23:35.628Z,85.63
2022-11-29T16:26:08.077Z,85.33
2022-11-29T16:28:40.299Z,85.86
2022-11-29T16:31:08.840Z,85.33
2022-11-29T16:33:37.927Z,84.83
2022-11-29T16:36:14.464Z,85.15
2022-11-29T16:38:46.989Z,84.46
2022-11-29T16:41:24.180Z,84.53
2022-11-29T16:43:54.189Z,84.78
2022-11-29T16:46:20.759Z,84.62
2022-11-29T16:48:50.935Z,84.88
2022-11-29T16:51:26.316Z,84.64
2022-11-29T16:53:54.442Z,84.46
2022-11-29T16:56:24.435Z,85.00
2022-11-29T16:59:20.779Z,85.22
2022-11-29T17:01:46.575Z,85.17
2022-11-29T17:04:13.188Z,84.49
2022-11-29T17:06:51.577Z,84.40
2022-11-29T17:09:27.414Z,84.33
2022-11-29T17:11:55.828Z,84.19
2022-11-29T17:14:23.061Z,84.81
2022-11-29T17:16:49.765Z,84.87
2022-11-29T17:19:16.794Z,84.14
2022-11-29T17:21:43.525Z,84.10
2022-11-29T17:24:13.323Z,85.20
2022-11-29T17:26:41.272Z,84.77
2022-11-29T17:29:09.636Z,84.92
2022-11-29T17:31:36.337Z,83.80
2022-11-29T17:34:03.805Z,85.49
2022-11-29T17:36:30.895Z,84.58
2022-11-29T17:39:01.300Z,84.83
2022-11-29T17:41:28.911Z,84.53
2022-11-29T17:43:56.797Z,84.67
2022-11-29T17:46:24.425Z,85.39
2022-11-29T17:48:52.273Z,84.12
2022-11-29T17:51:49.833Z,85.20
2022-11-29T17:54:08.686Z,83.60
2022-11-29T17:56:35.270Z,84.09
2022-11-29T17:59:03.671Z,84.69
2022-11-29T18:01:33.321Z,84.52
2022-11-29T18:04:02.459Z,84.89
2022-11-29T18:06:33.337Z,84.14
2022-11-29T18:09:01.364Z,84.98
2022-11-29T18:11:46.934Z,83.86
2022-11-29T18:14:20.497Z,84.19
2022-11-29T18:16:47.362Z,84.43
2022-11-29T18:19:18.051Z,84.59
2022-11-29T18:21:44.967Z,84.41
2022-11-29T18:24:11.824Z,84.54
2022-11-29T18:26:39.187Z,84.76
2022-11-29T18:29:06.921Z,84.49
2022-11-29T18:31:36.363Z,84.21
2022-11-29T18:34:09.617Z,84.32
2022-11-29T18:36:39.613Z,84.01
2022-11-29T18:39:13.826Z,85.04
2022-11-29T18:41:42.675Z,83.97
2022-11-29T18:44:12.079Z,84.43
2022-11-29T18:46:40.018Z,84.42
2022-11-29T18:49:10.039Z,84.07
2022-11-29T18:51:37.809Z,83.80
2022-11-29T18:54:05.717Z,83.40
2022-11-29T18:56:34.398Z,84.24
2022-11-29T18:59:04.196Z,83.70
2022-11-29T19:01:34.042Z,84.41
2022-11-29T19:04:01.564Z,84.41
2022-11-29T19:06:39.191Z,83.53
2022-11-29T19:09:11.147Z,84.38
2022-11-29T19:11:37.829Z,83.13
2022-11-29T19:14:11.210Z,84.29
2022-11-29T19:16:41.815Z,83.69
2022-11-29T19:19:08.734Z,83.56
2022-11-29T19:21:35.540Z,83.62
2022-11-29T19:24:05.467Z,83.19
2022-11-29T19:26:33.532Z,84.42
2022-11-29T19:29:01.476Z,83.35
2022-11-29T19:31:28.816Z,83.64
2022-11-29T19:33:56.588Z,83.50
2022-11-29T19:36:25.894Z,83.25
2022-11-29T19:38:54.453Z,84.39
2022-11-29T19:41:23.156Z,83.72
2022-11-29T19:43:50.723Z,84.23
2022-11-29T19:46:19.735Z,83.60
2022-11-29T19:48:46.689Z,83.09
2022-11-29T19:51:16.547Z,83.28
2022-11-29T19:53:43.562Z,83.77
2022-11-29T19:56:15.657Z,83.67
2022-11-29T19:58:43.216Z,83.35
2022-11-29T20:01:16.771Z,83.44
2022-11-29T20:03:45.054Z,83.41
2022-11-29T20:06:16.235Z,84.34
2022-11-29T20:08:43.120Z,84.25
2022-11-29T20:11:14.011Z,83.96
2022-11-29T20:13:42.124Z,84.25
2022-11-29T20:16:11.876Z,84.12
2022-11-29T20:18:43.546Z,84.40
2022-11-29T20:21:17.477Z,84.19
2022-11-29T20:23:44.257Z,83.94
2022-11-29T20:26:14.712Z,84.27
2022-11-29T20:28:41.953Z,84.36
2022-11-29T20:31:10.872Z,84.56
2022-11-29T20:33:38.849Z,84.16
2022-11-29T20:36:27.958Z,84.51
2022-11-29T20:39:19.408Z,84.56
2022-11-29T20:41:49.164Z,84.44
2022-11-29T20:44:39.198Z,84.26
2022-11-29T20:47:18.495Z,84.46
2022-11-29T20:49:45.772Z,84.15
2022-11-29T20:52:42.194Z,84.26
2022-11-29T20:55:09.224Z,84.39
2022-11-29T20:57:38.401Z,84.65
2022-11-29T21:00:11.268Z,84.22
2022-11-29T21:02:38.118Z,84.58
2022-11-29T21:05:05.355Z,84.57
2022-11-29T21:07:32.018Z,84.48
2022-11-29T21:10:01.409Z,84.34
2022-11-29T21:12:29.659Z,84.44
2022-11-29T21:14:56.696Z,84.06
2022-11-29T21:17:26.465Z,84.59
2022-11-29T21:19:57.098Z,84.45
2022-11-29T21:22:46.930Z,84.82
2022-11-29T21:25:32.359Z,84.56
2022-11-29T21:28:00.565Z,84.17
2022-11-29T21:30:27.453Z,84.26
2022-11-29T21:32:54.471Z,83.82
2022-11-29T21:35:21.089Z,83.98
2022-11-29T21:37:47.963Z,83.78
2022-11-29T21:40:15.195Z,83.94
2022-11-29T21:42:41.890Z,83.73
2022-11-29T21:45:14.921Z,83.69
2022-11-29T21:47:43.090Z,83.85
2022-11-29T21:50:11.157Z,83.81
2022-11-29T21:52:37.911Z,83.83
2022-11-29T21:55:05.214Z,83.48
2022-11-29T21:57:31.796Z,83.51
2022-11-29T21:59:58.444Z,83.61
2022-11-29T22:02:25.078Z,83.40
2022-11-29T22:04:51.830Z,83.38
2022-11-29T22:07:18.649Z,83.77
2022-11-29T22:09:45.707Z,83.21
2022-11-29T22:12:32.506Z,82.82
2022-11-29T22:14:58.986Z,83.16
2022-11-29T22:17:25.634Z,82.95
2022-11-29T22:19:52.254Z,82.93
2022-11-29T22:22:19.228Z,82.81
2022-11-29T22:24:46.143Z,82.47
2022-11-29T22:27:13.155Z,82.57
2022-11-29T22:29:39.889Z,82.65
2022-11-29T22:32:06.505Z,82.46
2022-11-29T22:34:33.340Z,82.66
2022-11-29T22:37:00.129Z,81.98
2022-11-29T22:39:26.915Z,82.28
2022-11-29T22:41:55.091Z,82.66
2022-11-29T22:44:23.311Z,82.15
2022-11-29T22:46:51.006Z,81.63
2022-11-29T22:49:17.677Z,81.77
2022-11-29T22:51:44.584Z,82.22
2022-11-29T22:54:11.880Z,82.39
2022-11-29T22:56:40.725Z,82.12
2022-11-29T22:59:08.158Z,81.63
2022-11-29T23:01:36.778Z,82.13
2022-11-29T23:04:07.132Z,82.26
2022-11-29T23:06:36.209Z,82.33
2022-11-29T23:09:11.834Z,82.14
2022-11-29T23:11:38.825Z,81.92
2022-11-29T23:14:05.518Z,81.89
2022-11-29T23:16:32.928Z,82.24
2022-11-29T23:19:01.093Z,82.38
2022-11-29T23:21:30.635Z,82.08
2022-11-29T23:23:59.995Z,81.96
2022-11-29T23:26:29.488Z,82.36
2022-11-29T23:28:56.990Z,82.00
2022-11-29T23:31:24.160Z,82.18
2022-11-29T23:33:51.235Z,81.76
2022-11-29T23:36:18.936Z,82.35
2022-11-29T23:38:47.118Z,82.33
2022-11-29T23:41:13.969Z,81.96
2022-11-29T23:43:41.854Z,82.25
2022-11-29T23:46:12.638Z,82.22
2022-11-29T23:48:39.458Z,82.95
2022-11-29T23:51:06.248Z,83.07
2022-11-29T23:53:35.372Z,83.16
2022-11-29T23:56:07.658Z,83.25
2022-11-29T23:58:34.705Z,83.04
